createdAt,value
2022-12-23T00:00:44.308Z,0.68
2022-12-23T00:03:10.807Z,0.72
2022-12-23T00:05:38.111Z,0.79
2022-12-23T00:08:04.732Z,0.75
2022-12-23T00:10:31.085Z,0.72
2022-12-23T00:12:57.472Z,0.75
2022-12-23T00:15:23.846Z,0.72
2022-12-23T00:17:50.228Z,0.78
2022-12-23T00:20:16.593Z,0.76
2022-12-23T00:22:43.069Z,0.77
2022-12-23T00:25:09.446Z,0.69
2022-12-23T00:27:37.723Z,0.73
2022-12-23T00:30:04.298Z,0.73
2022-12-23T00:32:30.681Z,0.75
2022-12-23T00:34:57.040Z,0.82
2022-12-23T00:37:23.427Z,0.63
2022-12-23T00:39:54.798Z,0.82
2022-12-23T00:42:21.601Z,0.83
2022-12-23T00:44:47.948Z,0.63
2022-12-23T00:47:14.304Z,0.68
2022-12-23T00:49:40.696Z,0.71
2022-12-23T00:52:07.298Z,0.82
2022-12-23T00:54:33.694Z,0.74
2022-12-23T00:57:00.179Z,0.75
2022-12-23T00:59:26.563Z,0.69
2022-12-23T01:01:53.037Z,0.62
2022-12-23T01:04:19.522Z,0.75
2022-12-23T01:06:45.878Z,0.69
2022-12-23T01:09:12.235Z,0.64
2022-12-23T01:11:38.693Z,0.77
2022-12-23T01:14:05.059Z,0.61
2022-12-23T01:16:31.512Z,0.69
2022-12-23T01:18:57.998Z,0.53
2022-12-23T01:21:24.366Z,0.61
2022-12-23T01:23:50.750Z,0.69
2022-12-23T01:26:17.112Z,0.68
2022-12-23T01:28:43.514Z,0.76
2022-12-23T01:31:09.901Z,0.71
2022-12-23T01:33:36.242Z,0.68
2022-12-23T01:36:02.624Z,0.63
2022-12-23T01:38:29.017Z,0.72
2022-12-23T01:40:55.472Z,0.63
2022-12-23T01:43:21.841Z,0.51
2022-12-23T01:45:48.270Z,0.60
2022-12-23T01:48:14.652Z,0.60
2022-12-23T01:50:41.002Z,0.58
2022-12-23T01:53:08.503Z,0.59
2022-12-23T01:55:35.229Z,0.65
2022-12-23T01:58:01.581Z,0.53
2022-12-23T02:00:27.971Z,0.59
2022-12-23T02:02:54.542Z,0.58
2022-12-23T02:05:21.023Z,0.61
2022-12-23T02:07:47.396Z,0.54
2022-12-23T02:10:13.776Z,0.54
2022-12-23T02:12:40.174Z,0.53
2022-12-23T02:15:06.539Z,0.64
2022-12-23T02:17:32.905Z,0.69
2022-12-23T02:19:59.300Z,0.47
2022-12-23T02:22:25.666Z,0.59
2022-12-23T02:24:52.027Z,0.54
2022-12-23T02:27:18.492Z,0.53
2022-12-23T02:29:44.854Z,0.48
2022-12-23T02:32:11.247Z,0.54
2022-12-23T02:34:37.674Z,0.53
2022-12-23T02:37:04.058Z,0.66
2022-12-23T02:39:30.441Z,0.50
2022-12-23T02:41:56.833Z,0.49
2022-12-23T02:44:23.210Z,0.53
2022-12-23T02:46:49.616Z,0.44
2022-12-23T02:49:15.988Z,0.52
2022-12-23T02:51:42.356Z,0.57
2022-12-23T02:54:08.730Z,0.53
2022-12-23T02:56:35.125Z,0.60
2022-12-23T02:59:01.472Z,0.53
2022-12-23T03:01:27.919Z,0.57
2022-12-23T03:03:54.416Z,0.54
2022-12-23T03:06:20.876Z,0.56
2022-12-23T03:08:47.256Z,0.56
2022-12-23T03:11:13.631Z,0.58
2022-12-23T03:13:40.008Z,0.56
2022-12-23T03:16:06.516Z,0.65
2022-12-23T03:18:32.957Z,0.57
2022-12-23T03:20:59.337Z,0.65
2022-12-23T03:23:25.701Z,0.59
2022-12-23T03:25:52.072Z,0.67
2022-12-23T03:28:18.428Z,0.57
2022-12-23T03:30:44.834Z,0.69
2022-12-23T03:33:11.268Z,0.67
2022-12-23T03:35:37.667Z,0.83
2022-12-23T03:38:04.030Z,0.67
2022-12-23T03:40:30.385Z,0.72
2022-12-23T03:42:56.794Z,0.64
2022-12-23T03:45:40.650Z,0.62
2022-12-23T03:48:07.609Z,0.69
2022-12-23T03:50:33.981Z,0.68
2022-12-23T03:53:00.378Z,0.78
2022-12-23T03:55:26.743Z,0.73
2022-12-23T03:57:53.091Z,0.61
2022-12-23T04:00:19.478Z,0.76
2022-12-23T04:02:46.011Z,0.76
2022-12-23T04:05:12.476Z,0.75
2022-12-23T04:07:38.812Z,0.94
2022-12-23T04:10:05.167Z,0.80
2022-12-23T04:12:31.537Z,0.86
2022-12-23T04:14:57.904Z,0.89
2022-12-23T04:17:24.258Z,0.73
2022-12-23T04:19:50.623Z,1.01
2022-12-23T04:22:17.001Z,0.84
2022-12-23T04:24:43.436Z,0.74
2022-12-23T04:27:09.841Z,0.82
2022-12-23T04:29:36.192Z,0.80
2022-12-23T04:32:02.551Z,0.74
2022-12-23T04:34:29.024Z,0.99
2022-12-23T04:36:55.375Z,0.86
2022-12-23T04:39:21.732Z,0.78
2022-12-23T04:41:48.210Z,0.74
2022-12-23T04:44:14.562Z,0.97
2022-12-23T04:46:40.990Z,0.83
2022-12-23T04:49:07.463Z,0.83
2022-12-23T04:51:33.849Z,0.90
2022-12-23T04:54:00.207Z,0.78
2022-12-23T04:56:26.612Z,0.85
2022-12-23T04:58:52.971Z,0.85
2022-12-23T05:01:19.422Z,0.84
2022-12-23T05:03:45.843Z,0.87
2022-12-23T05:06:12.235Z,0.82
2022-12-23T05:08:38.586Z,0.78
2022-12-23T05:11:05.005Z,0.77
2022-12-23T05:13:31.375Z,0.91
2022-12-23T05:15:57.816Z,0.94
2022-12-23T05:18:24.253Z,0.92
2022-12-23T05:20:50.599Z,0.86
2022-12-23T05:23:16.979Z,0.86
2022-12-23T05:25:43.393Z,0.73
2022-12-23T05:28:09.788Z,0.90
2022-12-23T05:30:36.148Z,0.96
2022-12-23T05:33:02.567Z,0.94
2022-12-23T05:35:28.955Z,0.83
2022-12-23T05:37:55.329Z,0.87
2022-12-23T05:40:23.850Z,0.91
2022-12-23T05:42:51.503Z,0.91
2022-12-23T05:45:17.888Z,0.81
2022-12-23T05:47:44.360Z,0.85
2022-12-23T05:50:10.784Z,0.84
2022-12-23T05:52:37.124Z,0.89
2022-12-23T05:55:03.522Z,0.93
2022-12-23T05:57:29.868Z,0.87
2022-12-23T05:59:56.332Z,0.86
2022-12-23T06:02:22.788Z,0.78
2022-12-23T06:04:49.261Z,0.88
2022-12-23T06:07:15.634Z,0.83
2022-12-23T06:09:42.019Z,0.73
2022-12-23T06:12:08.379Z,0.91
2022-12-23T06:14:34.754Z,0.89
2022-12-23T06:17:01.182Z,0.74
2022-12-23T06:19:27.563Z,0.77
2022-12-23T06:21:53.948Z,0.73
2022-12-23T06:24:20.285Z,0.86
2022-12-23T06:26:47.522Z,0.74
2022-12-23T06:29:16.089Z,0.77
2022-12-23T06:31:42.586Z,0.85
2022-12-23T06:34:09.182Z,0.80
2022-12-23T06:36:35.570Z,0.83
2022-12-23T06:39:01.942Z,0.75
2022-12-23T06:41:28.288Z,0.72
2022-12-23T06:43:54.843Z,0.74
2022-12-23T06:46:21.240Z,0.63
2022-12-23T06:48:47.670Z,0.73
2022-12-23T06:51:14.043Z,0.69
2022-12-23T06:53:40.399Z,0.72
2022-12-23T06:56:06.779Z,0.59
2022-12-23T06:58:33.144Z,0.67
2022-12-23T07:00:59.587Z,0.72
2022-12-23T07:03:26.128Z,0.71
2022-12-23T07:05:52.630Z,0.78
2022-12-23T07:08:18.992Z,0.55
2022-12-23T07:10:45.455Z,0.61
2022-12-23T07:13:11.853Z,0.51
2022-12-23T07:15:38.239Z,0.69
2022-12-23T07:18:04.606Z,0.59
2022-12-23T07:20:30.980Z,0.57
2022-12-23T07:22:57.356Z,0.57
2022-12-23T07:25:23.738Z,0.63
2022-12-23T07:27:50.089Z,0.51
2022-12-23T07:30:16.477Z,0.56
2022-12-23T07:32:42.888Z,0.57
2022-12-23T07:35:09.274Z,0.55
2022-12-23T07:37:35.773Z,0.51
2022-12-23T07:40:08.082Z,0.60
2022-12-23T07:42:50.397Z,0.57
2022-12-23T07:45:16.834Z,0.54
2022-12-23T07:47:43.247Z,0.52
2022-12-23T07:50:09.605Z,0.48
2022-12-23T07:52:36.089Z,0.48
2022-12-23T07:55:02.447Z,0.44
2022-12-23T07:57:28.826Z,0.49
2022-12-23T07:59:55.192Z,0.60
2022-12-23T08:02:21.654Z,0.77
2022-12-23T08:04:48.159Z,0.97
2022-12-23T08:07:14.600Z,0.78
2022-12-23T08:09:40.987Z,0.91
2022-12-23T08:12:07.381Z,0.91
2022-12-23T08:14:33.740Z,1.05
2022-12-23T08:17:00.180Z,0.71
2022-12-23T08:19:26.638Z,0.95
2022-12-23T08:21:52.998Z,0.81
2022-12-23T08:24:19.368Z,0.75
2022-12-23T08:26:45.742Z,0.74
2022-12-23T08:29:12.115Z,0.95
2022-12-23T08:31:38.489Z,0.91
2022-12-23T08:34:04.847Z,0.80
2022-12-23T08:36:31.253Z,0.91
2022-12-23T08:38:57.636Z,0.66
2022-12-23T08:41:24.003Z,0.70
2022-12-23T08:43:50.405Z,0.94
2022-12-23T08:46:16.844Z,0.68
2022-12-23T08:48:48.839Z,0.83
2022-12-23T08:51:15.896Z,0.76
2022-12-23T08:53:42.247Z,0.88
2022-12-23T08:56:08.662Z,0.78
2022-12-23T08:58:35.023Z,0.65
2022-12-23T09:01:01.401Z,0.82
2022-12-23T09:03:27.928Z,0.92
2022-12-23T09:05:54.335Z,0.88
2022-12-23T09:08:20.740Z,0.91
2022-12-23T09:10:47.124Z,0.85
2022-12-23T09:13:19.895Z,0.86
2022-12-23T09:15:51.535Z,0.85
2022-12-23T09:18:17.977Z,0.83
2022-12-23T09:20:44.372Z,0.78
2022-12-23T09:23:10.744Z,0.89
2022-12-23T09:25:37.130Z,0.83
2022-12-23T09:28:03.502Z,0.81
2022-12-23T09:30:29.873Z,0.73
2022-12-23T09:32:56.236Z,0.58
2022-12-23T09:35:22.628Z,0.81
2022-12-23T09:37:49.012Z,0.75
2022-12-23T09:40:15.401Z,0.68
2022-12-23T09:42:41.811Z,0.70
2022-12-23T09:45:08.180Z,0.73
2022-12-23T09:47:34.577Z,0.76
2022-12-23T09:50:01.067Z,0.92
2022-12-23T09:52:27.425Z,0.69
2022-12-23T09:54:53.826Z,0.81
2022-12-23T09:57:20.192Z,0.63
2022-12-23T09:59:46.568Z,0.73
2022-12-23T10:02:13.057Z,0.70
2022-12-23T10:04:39.488Z,0.72
2022-12-23T10:07:05.858Z,0.74
2022-12-23T10:09:32.229Z,0.69
2022-12-23T10:11:58.571Z,0.66
2022-12-23T10:14:25.063Z,0.84
2022-12-23T10:16:51.446Z,0.68
2022-12-23T10:19:17.795Z,0.71
2022-12-23T10:21:47.570Z,0.73
2022-12-23T10:24:14.429Z,0.68
2022-12-23T10:26:40.801Z,0.52
2022-12-23T10:29:07.223Z,0.64
2022-12-23T10:31:41.483Z,7.83
2022-12-23T10:34:08.014Z,5.35
2022-12-23T10:36:34.431Z,2.18
2022-12-23T10:39:00.861Z,1.86
2022-12-23T10:41:27.247Z,1.70
2022-12-23T10:43:53.668Z,1.48
2022-12-23T10:46:20.082Z,1.17
2022-12-23T10:48:46.479Z,1.17
2022-12-23T10:51:12.919Z,0.87
2022-12-23T10:53:39.300Z,0.87
2022-12-23T10:56:05.713Z,1.12
2022-12-23T10:58:32.099Z,1.31
2022-12-23T11:00:58.526Z,0.99
2022-12-23T11:03:24.989Z,0.89
2022-12-23T11:05:51.506Z,1.41
2022-12-23T11:08:17.895Z,1.23
2022-12-23T11:10:44.276Z,1.36
2022-12-23T11:13:10.785Z,1.28
2022-12-23T11:15:37.209Z,1.20
2022-12-23T11:18:03.658Z,1.28
2022-12-23T11:20:30.085Z,1.23
2022-12-23T11:22:56.485Z,1.30
2022-12-23T11:25:22.899Z,1.14
2022-12-23T11:27:49.321Z,1.24
2022-12-23T11:30:15.702Z,1.40
2022-12-23T11:32:42.093Z,1.22
2022-12-23T11:35:08.552Z,1.21
2022-12-23T11:37:35.045Z,1.14
2022-12-23T11:40:01.443Z,1.19
2022-12-23T11:42:27.873Z,1.41
2022-12-23T11:44:54.279Z,1.15
2022-12-23T11:47:20.656Z,1.28
2022-12-23T11:49:47.055Z,1.17
2022-12-23T11:52:14.451Z,1.26
2022-12-23T11:54:40.803Z,1.17
2022-12-23T11:57:07.851Z,1.08
2022-12-23T11:59:34.272Z,1.07
2022-12-23T12:02:00.735Z,1.04
2022-12-23T12:04:27.220Z,1.10
2022-12-23T12:06:56.615Z,1.29
2022-12-23T12:09:23.259Z,2.10
2022-12-23T12:11:49.665Z,4.12
2022-12-23T12:14:16.083Z,4.94
2022-12-23T12:16:42.523Z,3.10
2022-12-23T12:19:09.028Z,3.27
2022-12-23T12:21:35.413Z,4.15
2022-12-23T12:24:18.266Z,4.54
2022-12-23T12:26:45.597Z,3.96
2022-12-23T12:29:12.010Z,2.45
2022-12-23T12:31:38.416Z,2.18
2022-12-23T12:34:04.828Z,2.01
2022-12-23T12:36:31.268Z,1.93
2022-12-23T12:38:57.702Z,1.77
2022-12-23T12:41:24.214Z,1.54
2022-12-23T12:43:50.586Z,1.59
2022-12-23T12:46:17.100Z,1.50
2022-12-23T12:48:43.647Z,1.46
2022-12-23T12:51:10.010Z,1.28
2022-12-23T12:53:36.400Z,1.32
2022-12-23T12:56:02.765Z,1.28
2022-12-23T12:58:29.151Z,1.31
2022-12-23T13:00:55.564Z,1.46
2022-12-23T13:03:21.952Z,1.23
2022-12-23T13:05:53.587Z,1.29
2022-12-23T13:08:20.716Z,1.16
2022-12-23T13:10:47.124Z,1.04
2022-12-23T13:13:14.545Z,0.99
2022-12-23T13:15:40.957Z,1.20
2022-12-23T13:18:07.680Z,1.11
2022-12-23T13:20:34.054Z,1.08
2022-12-23T13:23:20.757Z,1.18
2022-12-23T13:25:46.855Z,1.05
2022-12-23T13:28:13.256Z,1.13
2022-12-23T13:30:39.660Z,1.24
2022-12-23T13:33:06.090Z,1.02
2022-12-23T13:35:32.461Z,0.95
2022-12-23T13:37:58.827Z,0.94
2022-12-23T13:40:25.299Z,1.02
2022-12-23T13:42:51.679Z,1.02
2022-12-23T13:45:18.029Z,1.22
2022-12-23T13:47:44.385Z,1.17
2022-12-23T13:50:10.737Z,1.18
2022-12-23T13:52:37.152Z,1.06
2022-12-23T13:55:03.538Z,1.04
2022-12-23T13:57:29.911Z,1.09
2022-12-23T13:59:59.749Z,1.13
2022-12-23T14:02:31.219Z,1.18
2022-12-23T14:04:57.622Z,1.35
2022-12-23T14:07:24.021Z,1.31
2022-12-23T14:09:50.416Z,1.28
2022-12-23T14:12:16.812Z,1.17
2022-12-23T14:14:43.162Z,1.26
2022-12-23T14:17:09.549Z,1.44
2022-12-23T14:19:35.920Z,1.23
2022-12-23T14:22:02.296Z,1.26
2022-12-23T14:24:28.647Z,1.16
2022-12-23T14:26:56.131Z,1.74
2022-12-23T14:29:22.497Z,4.80
2022-12-23T14:31:48.888Z,5.15
2022-12-23T14:34:15.369Z,6.47
2022-12-23T14:36:41.798Z,26.52
2022-12-23T14:39:08.182Z,14.59
2022-12-23T14:41:34.578Z,11.51
2022-12-23T14:44:00.951Z,11.02
2022-12-23T14:46:27.351Z,9.87
2022-12-23T14:49:15.947Z,8.22
2022-12-23T14:51:40.162Z,7.16
2022-12-23T14:54:06.576Z,7.04
2022-12-23T14:56:32.946Z,6.18
2022-12-23T14:58:59.352Z,5.64
2022-12-23T15:01:25.722Z,5.07
2022-12-23T15:03:57.590Z,4.59
2022-12-23T15:06:27.278Z,4.06
2022-12-23T15:08:53.690Z,3.85
2022-12-23T15:11:20.086Z,3.65
2022-12-23T15:13:46.452Z,3.44
2022-12-23T15:16:12.926Z,3.05
2022-12-23T15:18:39.389Z,2.95
2022-12-23T15:21:05.779Z,2.82
2022-12-23T15:23:32.292Z,2.44
2022-12-23T15:25:58.681Z,2.40
2022-12-23T15:28:25.090Z,2.30
2022-12-23T15:30:51.502Z,2.08
2022-12-23T15:33:52.040Z,1.93
2022-12-23T15:36:05.483Z,1.99
2022-12-23T15:38:31.821Z,1.92
2022-12-23T15:40:58.207Z,1.63
2022-12-23T15:43:24.599Z,1.75
2022-12-23T15:45:50.987Z,2.14
2022-12-23T15:48:17.353Z,1.84
2022-12-23T15:50:43.770Z,1.72
2022-12-23T15:53:10.191Z,1.73
2022-12-23T15:55:36.592Z,1.68
2022-12-23T15:58:03.373Z,1.65
2022-12-23T16:00:29.727Z,1.54
2022-12-23T16:03:01.593Z,1.75
2022-12-23T16:05:29.602Z,1.80
2022-12-23T16:07:55.999Z,1.85
2022-12-23T16:10:22.403Z,1.74
2022-12-23T16:12:48.819Z,1.90
2022-12-23T16:15:15.262Z,1.89
2022-12-23T16:17:41.654Z,2.12
2022-12-23T16:20:08.039Z,2.24
2022-12-23T16:22:34.459Z,2.11
2022-12-23T16:25:00.830Z,2.20
2022-12-23T16:27:27.290Z,2.11
2022-12-23T16:29:53.691Z,2.16
2022-12-23T16:32:20.222Z,1.97
2022-12-23T16:34:46.694Z,2.09
2022-12-23T16:37:14.249Z,2.18
2022-12-23T16:39:40.790Z,2.26
2022-12-23T16:42:08.138Z,2.34
2022-12-23T16:44:34.589Z,2.17
2022-12-23T16:47:00.962Z,2.03
2022-12-23T16:49:33.150Z,1.96
2022-12-23T16:52:00.268Z,2.04
2022-12-23T16:54:26.683Z,2.06
2022-12-23T16:56:54.614Z,2.19
2022-12-23T16:59:21.065Z,2.14
2022-12-23T17:01:47.559Z,2.30
2022-12-23T17:04:14.131Z,2.28
2022-12-23T17:06:40.582Z,2.36
2022-12-23T17:09:06.979Z,2.45
2022-12-23T17:11:33.384Z,2.50
2022-12-23T17:14:04.150Z,2.46
2022-12-23T17:16:33.251Z,2.44
2022-12-23T17:18:59.710Z,2.47
2022-12-23T17:21:26.088Z,2.55
2022-12-23T17:23:52.452Z,2.81
2022-12-23T17:26:19.232Z,2.81
2022-12-23T17:28:45.622Z,2.47
2022-12-23T17:31:14.865Z,2.77
2022-12-23T17:33:43.478Z,2.68
2022-12-23T17:36:09.925Z,2.73
2022-12-23T17:38:36.344Z,2.74
2022-12-23T17:41:03.427Z,2.82
2022-12-23T17:43:29.835Z,2.67
2022-12-23T17:45:56.261Z,2.63
2022-12-23T17:48:27.975Z,2.67
2022-12-23T17:50:57.783Z,2.79
2022-12-23T17:53:24.129Z,2.74
2022-12-23T17:55:50.496Z,2.59
2022-12-23T17:58:16.903Z,2.69
2022-12-23T18:00:43.389Z,3.00
2022-12-23T18:03:09.861Z,2.89
2022-12-23T18:05:36.375Z,3.00
2022-12-23T18:08:02.760Z,2.81
2022-12-23T18:10:29.150Z,3.11
2022-12-23T18:12:55.513Z,2.97
2022-12-23T18:15:21.897Z,2.97
2022-12-23T18:17:48.310Z,3.14
2022-12-23T18:20:14.680Z,3.17
2022-12-23T18:22:41.141Z,3.51
2022-12-23T18:25:07.608Z,3.28
2022-12-23T18:27:33.965Z,3.61
2022-12-23T18:30:00.333Z,3.58
2022-12-23T18:32:26.740Z,3.74
2022-12-23T18:34:53.113Z,3.59
2022-12-23T18:37:19.494Z,3.46
2022-12-23T18:39:45.907Z,3.51
2022-12-23T18:42:12.277Z,3.39
2022-12-23T18:44:38.649Z,3.19
2022-12-23T18:47:05.009Z,3.38
2022-12-23T18:49:31.373Z,3.30
2022-12-23T18:51:57.751Z,3.57
2022-12-23T18:54:24.142Z,3.67
2022-12-23T18:56:50.640Z,3.95
2022-12-23T18:59:17.012Z,3.87
2022-12-23T19:01:43.419Z,4.68
2022-12-23T19:04:09.812Z,4.91
2022-12-23T19:06:36.176Z,5.33
2022-12-23T19:09:02.571Z,5.76
2022-12-23T19:11:28.945Z,6.15
2022-12-23T19:13:55.316Z,5.95
2022-12-23T19:16:21.777Z,5.91
2022-12-23T19:18:48.193Z,5.84
2022-12-23T19:21:14.601Z,5.76
2022-12-23T19:23:40.974Z,5.48
2022-12-23T19:26:07.364Z,5.31
2022-12-23T19:28:33.735Z,5.32
2022-12-23T19:31:00.212Z,5.19
2022-12-23T19:33:26.723Z,5.10
2022-12-23T19:35:53.089Z,4.80
2022-12-23T19:38:19.497Z,5.27
2022-12-23T19:40:45.901Z,5.10
2022-12-23T19:43:12.299Z,5.07
2022-12-23T19:45:38.649Z,4.93
2022-12-23T19:48:05.004Z,5.13
2022-12-23T19:50:31.368Z,4.97
2022-12-23T19:52:57.772Z,5.10
2022-12-23T19:55:24.249Z,4.59
2022-12-23T19:57:50.643Z,4.64
2022-12-23T20:00:17.013Z,4.78
2022-12-23T20:02:43.485Z,4.67
2022-12-23T20:05:09.918Z,4.43
2022-12-23T20:07:36.294Z,4.89
2022-12-23T20:10:02.676Z,4.50
2022-12-23T20:12:29.121Z,4.44
2022-12-23T20:14:55.565Z,4.62
2022-12-23T20:17:21.924Z,4.36
2022-12-23T20:19:48.302Z,4.01
2022-12-23T20:22:14.683Z,4.09
2022-12-23T20:24:41.142Z,4.19
2022-12-23T20:27:11.369Z,4.10
2022-12-23T20:29:38.395Z,4.68
2022-12-23T20:32:04.766Z,4.38
2022-12-23T20:34:38.396Z,4.33
2022-12-23T20:37:05.790Z,4.22
2022-12-23T20:39:32.192Z,4.06
2022-12-23T20:41:58.604Z,4.20
2022-12-23T20:44:34.416Z,4.18
2022-12-23T20:47:01.913Z,4.26
2022-12-23T20:49:28.402Z,4.54
2022-12-23T20:51:54.886Z,4.33
2022-12-23T20:54:24.916Z,3.96
2022-12-23T20:56:54.473Z,4.31
2022-12-23T20:59:20.830Z,4.39
2022-12-23T21:01:47.273Z,4.30
2022-12-23T21:04:13.628Z,4.11
2022-12-23T21:06:40.011Z,3.96
2022-12-23T21:09:06.397Z,4.07
2022-12-23T21:11:32.769Z,3.83
2022-12-23T21:14:05.643Z,4.16
2022-12-23T21:16:32.985Z,4.23
2022-12-23T21:18:59.692Z,3.98
2022-12-23T21:21:26.089Z,4.31
2022-12-23T21:23:52.445Z,4.24
2022-12-23T21:26:18.844Z,3.77
2022-12-23T21:28:45.213Z,4.09
2022-12-23T21:31:11.604Z,4.38
2022-12-23T21:33:38.031Z,4.28
2022-12-23T21:36:04.515Z,3.97
2022-12-23T21:38:30.945Z,3.83
2022-12-23T21:40:57.372Z,3.73
2022-12-23T21:43:23.726Z,4.14
2022-12-23T21:45:50.130Z,4.13
2022-12-23T21:48:16.498Z,3.88
2022-12-23T21:50:42.873Z,4.29
2022-12-23T21:53:09.242Z,4.25
2022-12-23T21:55:35.592Z,3.80
2022-12-23T21:58:01.952Z,3.84
2022-12-23T22:00:28.360Z,3.79
2022-12-23T22:02:54.735Z,3.79
2022-12-23T22:05:21.124Z,3.98
2022-12-23T22:07:47.525Z,3.93
2022-12-23T22:10:13.871Z,4.26
2022-12-23T22:12:40.256Z,3.95
2022-12-23T22:15:11.545Z,4.07
2022-12-23T22:17:38.316Z,3.72
2022-12-23T22:20:04.691Z,4.25
2022-12-23T22:22:31.160Z,4.56
2022-12-23T22:24:57.539Z,3.79
2022-12-23T22:27:23.915Z,3.82
2022-12-23T22:29:50.416Z,3.76
2022-12-23T22:32:16.785Z,4.19
2022-12-23T22:34:43.186Z,3.97
2022-12-23T22:37:09.672Z,3.96
2022-12-23T22:39:36.028Z,3.93
2022-12-23T22:42:02.400Z,3.84
2022-12-23T22:44:28.882Z,3.79
2022-12-23T22:46:55.284Z,4.04
2022-12-23T22:49:21.732Z,4.03
2022-12-23T22:51:48.127Z,4.00
2022-12-23T22:54:14.496Z,4.00
2022-12-23T22:56:40.883Z,3.73
2022-12-23T22:59:07.287Z,4.06
2022-12-23T23:01:33.702Z,3.91
2022-12-23T23:04:00.096Z,3.69
2022-12-23T23:06:26.564Z,3.74
2022-12-23T23:08:52.930Z,3.89
2022-12-23T23:11:19.354Z,3.73
2022-12-23T23:13:45.834Z,3.88
2022-12-23T23:16:12.234Z,3.71
2022-12-23T23:18:38.622Z,3.90
2022-12-23T23:21:04.994Z,3.62
2022-12-23T23:23:31.370Z,3.96
2022-12-23T23:25:57.738Z,4.00
2022-12-23T23:28:24.088Z,3.98
2022-12-23T23:31:03.590Z,3.74
2022-12-23T23:33:36.812Z,3.70
2022-12-23T23:36:03.220Z,4.36
2022-12-23T23:38:29.619Z,4.28
2022-12-23T23:40:55.988Z,3.94
2022-12-23T23:43:22.361Z,3.70
2022-12-23T23:45:48.730Z,3.83
2022-12-23T23:48:15.175Z,3.51
2022-12-23T23:50:41.525Z,3.64
2022-12-23T23:53:07.913Z,4.02
2022-12-23T23:55:34.398Z,4.13
2022-12-23T23:58:00.763Z,3.82
